createdAt,value
2023-02-16T00:01:22.560Z,100437.50
2023-02-16T00:03:54.196Z,100442.59
2023-02-16T00:06:23.144Z,100446.88
2023-02-16T00:08:54.362Z,100447.72
2023-02-16T00:11:45.951Z,100442.66
2023-02-16T00:14:16.280Z,100436.81
2023-02-16T00:16:45.270Z,100439.34
2023-02-16T00:19:23.874Z,100452.03
2023-02-16T00:21:57.044Z,100450.34
2023-02-16T00:24:28.153Z,100449.53
2023-02-16T00:26:57.695Z,100452.03
2023-02-16T00:29:29.591Z,100450.34
2023-02-16T00:32:00.639Z,100449.53
2023-02-16T00:34:34.436Z,100442.91
2023-02-16T00:37:05.581Z,100445.44
2023-02-16T00:39:34.610Z,100453.94
2023-02-16T00:42:06.544Z,100457.34
2023-02-16T00:44:38.902Z,100453.13
2023-02-16T00:47:20.673Z,100463.34
2023-02-16T00:49:52.992Z,100453.31
2023-02-16T00:52:35.520Z,100459.28
2023-02-16T00:55:10.301Z,100455.13
2023-02-16T00:57:43.130Z,100461.88
2023-02-16T01:00:19.221Z,100461.09
2023-02-16T01:02:50.572Z,100450.16
2023-02-16T01:05:23.280Z,100447.63
2023-02-16T01:08:21.288Z,100457.75
2023-02-16T01:11:10.266Z,100461.16
2023-02-16T01:13:47.816Z,100457.81
2023-02-16T01:16:20.063Z,100446.03
2023-02-16T01:18:50.364Z,100446.03
2023-02-16T01:21:22.978Z,100441.84
2023-02-16T01:23:51.711Z,100454.50
2023-02-16T01:26:22.205Z,100446.03
2023-02-16T01:28:50.983Z,100445.16
2023-02-16T01:31:19.693Z,100447.69
2023-02-16T01:33:48.391Z,100440.06
2023-02-16T01:36:27.842Z,100438.41
2023-02-16T01:38:56.532Z,100438.34
2023-02-16T01:41:45.232Z,100434.97
2023-02-16T01:44:17.876Z,100429.91
2023-02-16T01:46:52.456Z,100424.00
2023-02-16T01:49:22.652Z,100428.25
2023-02-16T01:51:59.719Z,100435.00
2023-02-16T01:54:37.448Z,100435.88
2023-02-16T01:57:21.016Z,100429.09
2023-02-16T02:00:21.193Z,100424.88
2023-02-16T02:02:53.204Z,100427.41
2023-02-16T02:05:37.151Z,100423.25
2023-02-16T02:08:22.293Z,100429.25
2023-02-16T02:11:08.720Z,100425.06
2023-02-16T02:13:43.847Z,100421.66
2023-02-16T02:16:13.886Z,100415.78
2023-02-16T02:18:44.946Z,100419.13
2023-02-16T02:21:50.416Z,100419.13
2023-02-16T02:24:58.858Z,100424.22
2023-02-16T02:27:32.975Z,100413.25
2023-02-16T02:30:31.393Z,100417.47
2023-02-16T02:33:36.068Z,100413.31
2023-02-16T02:36:20.083Z,100420.03
2023-02-16T02:39:02.750Z,100412.50
2023-02-16T02:41:56.599Z,100399.09
2023-02-16T02:44:30.743Z,100398.34
2023-02-16T02:47:00.018Z,100397.56
2023-02-16T02:49:28.603Z,100393.38
2023-02-16T02:51:57.492Z,100391.69
2023-02-16T02:54:48.344Z,100388.34
2023-02-16T02:57:40.356Z,100392.56
2023-02-16T03:00:32.845Z,100401.00
2023-02-16T03:03:07.484Z,100395.09
2023-02-16T03:05:39.374Z,100395.94
2023-02-16T03:08:15.251Z,100392.50
2023-02-16T03:11:05.934Z,100400.09
2023-02-16T03:13:40.016Z,100409.38
2023-02-16T03:16:15.464Z,100403.50
2023-02-16T03:19:03.297Z,100398.44
2023-02-16T03:21:50.977Z,100401.00
2023-02-16T03:24:42.437Z,100407.78
2023-02-16T03:27:28.951Z,100410.38
2023-02-16T03:29:59.088Z,100411.19
2023-02-16T03:32:29.523Z,100412.03
2023-02-16T03:34:58.157Z,100413.72
2023-02-16T03:37:26.913Z,100412.03
2023-02-16T03:40:14.141Z,100412.84
2023-02-16T03:42:50.995Z,100407.78
2023-02-16T03:45:20.282Z,100410.38
2023-02-16T03:47:50.329Z,100414.63
2023-02-16T03:50:19.250Z,100413.72
2023-02-16T03:52:47.994Z,100412.94
2023-02-16T03:55:17.144Z,100410.47
2023-02-16T03:57:45.827Z,100410.47
2023-02-16T04:00:15.507Z,100413.84
2023-02-16T04:02:45.119Z,100414.66
2023-02-16T04:05:15.186Z,100414.66
2023-02-16T04:07:43.833Z,100423.13
2023-02-16T04:10:12.555Z,100418.91
2023-02-16T04:12:40.229Z,100422.28
2023-02-16T04:15:12.549Z,100418.00
2023-02-16T04:17:41.483Z,100423.13
2023-02-16T04:20:15.272Z,100423.94
2023-02-16T04:22:44.571Z,100423.06
2023-02-16T04:25:13.787Z,100425.59
2023-02-16T04:27:44.386Z,100434.94
2023-02-16T04:30:17.143Z,100438.34
2023-02-16T04:32:46.504Z,100434.16
2023-02-16T04:35:17.561Z,100430.78
2023-02-16T04:37:46.494Z,100424.88
2023-02-16T04:40:17.219Z,100423.22
2023-02-16T04:42:46.672Z,100417.34
2023-02-16T04:45:15.628Z,100418.19
2023-02-16T04:47:44.297Z,100411.47
2023-02-16T04:50:15.150Z,100414.88
2023-02-16T04:52:43.829Z,100420.00
2023-02-16T04:55:12.481Z,100419.09
2023-02-16T04:57:41.343Z,100414.88
2023-02-16T05:00:12.927Z,100419.94
2023-02-16T05:02:41.628Z,100412.41
2023-02-16T05:05:10.364Z,100403.19
2023-02-16T05:07:40.375Z,100405.66
2023-02-16T05:10:10.060Z,100401.47
2023-02-16T05:12:55.867Z,100400.66
2023-02-16T05:15:24.517Z,100409.19
2023-02-16T05:17:53.127Z,100402.41
2023-02-16T05:20:42.008Z,100408.25
2023-02-16T05:23:12.095Z,100423.44
2023-02-16T05:25:40.892Z,100419.28
2023-02-16T05:28:09.604Z,100418.41
2023-02-16T05:30:38.277Z,100426.00
2023-02-16T05:33:06.876Z,100422.63
2023-02-16T05:35:35.748Z,100418.47
2023-02-16T05:38:04.712Z,100421.03
2023-02-16T05:40:34.730Z,100417.75
2023-02-16T05:43:03.718Z,100411.06
2023-02-16T05:45:32.463Z,100410.31
2023-02-16T05:48:01.195Z,100417.97
2023-02-16T05:50:29.893Z,100418.91
2023-02-16T05:53:01.231Z,100418.91
2023-02-16T05:55:29.958Z,100436.66
2023-02-16T05:57:59.995Z,100439.19
2023-02-16T06:00:28.756Z,100436.66
2023-02-16T06:02:57.432Z,100437.56
2023-02-16T06:05:26.355Z,100439.25
2023-02-16T06:07:54.968Z,100428.34
2023-02-16T06:10:23.624Z,100432.53
2023-02-16T06:12:52.213Z,100429.22
2023-02-16T06:15:22.310Z,100430.94
2023-02-16T06:17:50.934Z,100438.59
2023-02-16T06:20:20.663Z,100443.66
2023-02-16T06:22:49.472Z,100433.53
2023-02-16T06:25:20.240Z,100441.06
2023-02-16T06:27:50.117Z,100446.13
2023-02-16T06:30:19.346Z,100437.75
2023-02-16T06:32:49.417Z,100438.63
2023-02-16T06:35:18.406Z,100437.81
2023-02-16T06:37:47.027Z,100441.22
2023-02-16T06:40:17.574Z,100444.69
2023-02-16T06:42:46.725Z,100444.69
2023-02-16T06:45:15.377Z,100447.22
2023-02-16T06:47:44.375Z,100453.13
2023-02-16T06:50:15.139Z,100450.63
2023-02-16T06:52:43.790Z,100463.28
2023-02-16T06:55:12.898Z,100464.97
2023-02-16T06:57:41.680Z,100463.28
2023-02-16T07:00:11.348Z,100471.72
2023-02-16T07:02:39.972Z,100474.22
2023-02-16T07:05:09.070Z,100464.97
2023-02-16T07:07:39.098Z,100478.44
2023-02-16T07:10:09.458Z,100479.34
2023-02-16T07:12:38.040Z,100483.59
2023-02-16T07:15:07.441Z,100481.06
2023-02-16T07:17:36.381Z,100474.31
2023-02-16T07:20:06.017Z,100477.69
2023-02-16T07:22:34.819Z,100483.59
2023-02-16T07:25:04.931Z,100482.72
2023-02-16T07:27:33.569Z,100485.22
2023-02-16T07:30:02.239Z,100483.53
2023-02-16T07:32:32.004Z,100481.00
2023-02-16T07:35:00.662Z,100478.44
2023-02-16T07:37:29.259Z,100485.19
2023-02-16T07:39:58.095Z,100487.72
2023-02-16T07:42:32.381Z,100475.91
2023-02-16T07:45:01.352Z,100476.78
2023-02-16T07:47:30.002Z,100481.84
2023-02-16T07:49:58.630Z,100481.00
2023-02-16T07:52:31.125Z,100475.09
2023-02-16T07:55:00.119Z,100478.50
2023-02-16T07:57:30.555Z,100480.16
2023-02-16T07:59:59.164Z,100476.75
2023-02-16T08:02:28.503Z,100473.31
2023-02-16T08:04:57.187Z,100473.22
2023-02-16T08:07:25.875Z,100469.81
2023-02-16T08:09:54.502Z,100473.13
2023-02-16T08:12:23.154Z,100478.09
2023-02-16T08:14:53.231Z,100478.91
2023-02-16T08:17:21.850Z,100472.09
2023-02-16T08:19:51.857Z,100475.41
2023-02-16T08:22:20.539Z,100482.06
2023-02-16T08:24:49.224Z,100481.09
2023-02-16T08:27:18.035Z,100484.44
2023-02-16T08:29:46.899Z,100475.94
2023-02-16T08:32:17.035Z,100479.22
2023-02-16T08:34:45.711Z,100480.81
2023-02-16T08:37:14.975Z,100483.28
2023-02-16T08:39:43.923Z,100484.88
2023-02-16T08:42:14.305Z,100474.66
2023-02-16T08:44:43.447Z,100480.47
2023-02-16T08:47:12.137Z,100476.97
2023-02-16T08:49:44.306Z,100471.75
2023-02-16T08:52:13.459Z,100475.00
2023-02-16T08:54:42.246Z,100477.38
2023-02-16T08:57:11.331Z,100475.53
2023-02-16T08:59:39.970Z,100476.22
2023-02-16T09:02:09.159Z,100478.66
2023-02-16T09:04:38.040Z,100472.59
2023-02-16T09:07:08.027Z,100474.13
2023-02-16T09:09:36.664Z,100480.72
2023-02-16T09:12:05.892Z,100476.31
2023-02-16T09:14:34.595Z,100474.50
2023-02-16T09:17:03.374Z,100464.22
2023-02-16T09:19:32.092Z,100470.81
2023-02-16T09:22:00.731Z,100478.28
2023-02-16T09:24:31.013Z,100468.84
2023-02-16T09:26:59.677Z,100479.69
2023-02-16T09:29:28.265Z,100474.44
2023-02-16T09:31:56.948Z,100477.69
2023-02-16T09:34:27.951Z,100476.66
2023-02-16T09:36:56.808Z,100490.88
2023-02-16T09:39:25.481Z,100488.16
2023-02-16T09:42:11.494Z,100482.94
2023-02-16T09:44:50.580Z,100481.09
2023-02-16T09:47:29.425Z,100480.09
2023-02-16T09:49:59.872Z,100486.69
2023-02-16T09:52:37.103Z,100498.28
2023-02-16T09:55:13.333Z,100493.06
2023-02-16T09:58:08.186Z,100485.25
2023-02-16T10:00:49.554Z,100478.34
2023-02-16T10:03:41.294Z,100463.75
2023-02-16T10:06:29.826Z,100459.38
2023-02-16T10:09:01.146Z,100465.03
2023-02-16T10:11:42.090Z,100454.69
2023-02-16T10:14:23.187Z,100460.47
2023-02-16T10:17:00.234Z,100448.41
2023-02-16T10:19:35.260Z,100449.94
2023-02-16T10:22:08.375Z,100453.13
2023-02-16T10:24:49.900Z,100445.25
2023-02-16T10:27:18.565Z,100447.63
2023-02-16T10:29:48.628Z,100451.72
2023-02-16T10:32:29.118Z,100439.66
2023-02-16T10:35:10.942Z,100444.53
2023-02-16T10:37:56.028Z,100432.44
2023-02-16T10:40:34.519Z,100433.13
2023-02-16T10:43:14.154Z,100434.63
2023-02-16T10:45:52.511Z,100425.13
2023-02-16T10:48:22.970Z,100426.66
2023-02-16T10:51:00.355Z,100434.13
2023-02-16T10:53:40.903Z,100431.38
2023-02-16T10:56:40.514Z,100427.88
2023-02-16T10:59:17.664Z,100427.75
2023-02-16T11:01:52.021Z,100414.09
2023-02-16T11:04:49.329Z,100422.38
2023-02-16T11:07:21.041Z,100410.38
2023-02-16T11:09:53.108Z,100404.28
2023-02-16T11:12:32.500Z,100406.72
2023-02-16T11:15:06.364Z,100404.06
2023-02-16T11:17:52.644Z,100391.22
2023-02-16T11:20:31.161Z,100393.59
2023-02-16T11:23:23.242Z,100391.00
2023-02-16T11:26:04.158Z,100388.38
2023-02-16T11:28:38.514Z,100395.00
2023-02-16T11:31:19.152Z,100387.25
2023-02-16T11:34:01.374Z,100380.38
2023-02-16T11:36:36.062Z,100378.59
2023-02-16T11:39:15.815Z,100368.28
2023-02-16T11:41:52.173Z,100361.44
2023-02-16T11:44:29.084Z,100362.97
2023-02-16T11:46:58.811Z,100362.00
2023-02-16T11:49:35.899Z,100350.03
2023-02-16T11:52:29.284Z,100345.78
2023-02-16T11:55:02.063Z,100343.13
2023-02-16T11:57:33.789Z,100343.94
2023-02-16T12:00:12.006Z,100343.84
2023-02-16T12:03:25.115Z,100337.00
2023-02-16T12:06:18.090Z,100339.50
2023-02-16T12:09:09.046Z,100336.88
2023-02-16T12:11:50.095Z,100330.03
2023-02-16T12:14:44.911Z,100329.13
2023-02-16T12:17:34.781Z,100326.53
2023-02-16T12:20:17.288Z,100329.00
2023-02-16T12:22:50.008Z,100332.28
2023-02-16T12:25:34.996Z,100332.25
2023-02-16T12:28:15.016Z,100326.19
2023-02-16T12:30:58.594Z,100326.16
2023-02-16T12:33:43.510Z,100315.91
2023-02-16T12:36:37.614Z,100314.97
2023-02-16T12:39:18.860Z,100315.81
2023-02-16T12:42:19.845Z,100314.09
2023-02-16T12:44:52.343Z,100309.84
2023-02-16T12:47:26.911Z,100307.22
2023-02-16T12:49:59.371Z,100309.72
2023-02-16T12:52:38.172Z,100311.31
2023-02-16T12:55:22.192Z,100302.88
2023-02-16T12:58:04.257Z,100308.69
2023-02-16T13:00:46.566Z,100304.47
2023-02-16T13:03:37.252Z,100301.06
2023-02-16T13:06:18.090Z,100304.41
2023-02-16T13:08:53.145Z,100304.41
2023-02-16T13:11:30.111Z,100298.44
2023-02-16T13:14:06.189Z,100288.25
2023-02-16T13:16:44.059Z,100288.25
2023-02-16T13:19:14.551Z,100279.72
2023-02-16T13:22:20.802Z,100282.25
2023-02-16T13:25:05.310Z,100277.25
2023-02-16T13:27:45.537Z,100278.00
2023-02-16T13:30:48.459Z,100268.69
2023-02-16T13:33:50.251Z,100275.50
2023-02-16T13:37:04.894Z,100271.22
2023-02-16T13:40:14.900Z,100274.63
2023-02-16T13:43:13.269Z,100272.06
2023-02-16T13:45:44.568Z,100272.81
2023-02-16T13:48:23.964Z,100267.66
2023-02-16T13:50:59.768Z,100267.63
2023-02-16T13:53:36.234Z,100254.88
2023-02-16T13:56:22.378Z,100249.72
2023-02-16T13:58:53.990Z,100253.88
2023-02-16T14:01:43.237Z,100244.53
2023-02-16T14:05:01.582Z,100239.47
2023-02-16T14:07:38.383Z,100242.00
2023-02-16T14:10:14.668Z,100241.16
2023-02-16T14:12:44.515Z,100237.72
2023-02-16T14:15:22.583Z,100235.94
2023-02-16T14:17:51.261Z,100237.66
2023-02-16T14:20:31.282Z,100231.66
2023-02-16T14:23:03.208Z,100235.00
2023-02-16T14:25:39.206Z,100231.53
2023-02-16T14:29:04.552Z,100247.66
2023-02-16T14:31:43.168Z,100231.53
2023-02-16T14:34:21.529Z,100229.75
2023-02-16T14:37:30.656Z,100223.78
2023-02-16T14:40:16.490Z,100210.19
2023-02-16T14:42:52.858Z,100214.31
2023-02-16T14:46:19.884Z,100213.44
2023-02-16T14:49:40.721Z,100225.28
2023-02-16T14:52:59.854Z,100219.34
2023-02-16T14:56:08.643Z,100220.19
2023-02-16T14:58:46.577Z,100213.28
2023-02-16T15:01:18.865Z,100215.69
2023-02-16T15:03:50.435Z,100216.53
2023-02-16T15:06:29.668Z,100215.56
2023-02-16T15:09:05.183Z,100214.69
2023-02-16T15:11:57.237Z,100213.78
2023-02-16T15:14:27.739Z,100210.34
2023-02-16T15:16:58.907Z,100213.69
2023-02-16T15:19:32.385Z,100203.47
2023-02-16T15:22:20.078Z,100205.16
2023-02-16T15:25:02.640Z,100216.22
2023-02-16T15:27:33.122Z,100210.19
2023-02-16T15:30:22.013Z,100200.84
2023-02-16T15:32:53.820Z,100201.66
2023-02-16T15:35:30.796Z,100204.19
2023-02-16T15:38:10.955Z,100199.91
2023-02-16T15:40:40.883Z,100200.69
2023-02-16T15:43:22.892Z,100193.94
2023-02-16T15:45:53.929Z,100190.56
2023-02-16T15:48:27.845Z,100186.22
2023-02-16T15:51:02.735Z,100183.66
2023-02-16T15:53:47.273Z,100191.31
2023-02-16T15:56:32.431Z,100193.03
2023-02-16T15:59:04.297Z,100187.94
2023-02-16T16:01:35.206Z,100187.88
2023-02-16T16:04:19.887Z,100193.78
2023-02-16T16:06:51.394Z,100192.09
2023-02-16T16:09:26.706Z,100188.66
2023-02-16T16:11:58.079Z,100192.91
2023-02-16T16:14:28.487Z,100189.53
2023-02-16T16:16:57.646Z,100193.75
2023-02-16T16:19:35.170Z,100196.28
2023-02-16T16:22:05.489Z,100196.28
2023-02-16T16:24:39.311Z,100197.91
2023-02-16T16:27:10.688Z,100196.28
2023-02-16T16:29:44.027Z,100201.38
2023-02-16T16:32:23.117Z,100202.22
2023-02-16T16:34:52.423Z,100203.94
2023-02-16T16:37:29.006Z,100209.03
2023-02-16T16:40:08.877Z,100210.75
2023-02-16T16:42:40.189Z,100217.50
2023-02-16T16:45:35.311Z,100216.69
2023-02-16T16:48:11.213Z,100215.84
2023-02-16T16:50:41.102Z,100215.03
2023-02-16T16:53:55.396Z,100213.34
2023-02-16T16:56:25.872Z,100221.91
2023-02-16T16:58:57.886Z,100208.25
2023-02-16T17:01:29.425Z,100216.72
2023-02-16T17:03:58.908Z,100222.66
2023-02-16T17:06:28.390Z,100221.78
2023-02-16T17:08:57.009Z,100215.84
2023-02-16T17:11:31.847Z,100221.78
2023-02-16T17:14:09.624Z,100220.94
2023-02-16T17:16:42.859Z,100226.88
2023-02-16T17:19:13.981Z,100217.50
2023-02-16T17:21:42.679Z,100217.50
2023-02-16T17:24:11.439Z,100205.56
2023-02-16T17:26:44.688Z,100208.13
2023-02-16T17:29:13.326Z,100212.41
2023-02-16T17:31:41.985Z,100211.50
2023-02-16T17:34:10.683Z,100231.03
2023-02-16T17:36:39.655Z,100225.06
2023-02-16T17:39:08.510Z,100219.97
2023-02-16T17:41:37.126Z,100230.16
2023-02-16T17:44:07.263Z,100216.59
2023-02-16T17:46:35.946Z,100216.59
2023-02-16T17:49:04.684Z,100222.53
2023-02-16T17:51:36.464Z,100218.28
2023-02-16T17:54:06.510Z,100218.31
2023-02-16T17:56:35.997Z,100215.75
2023-02-16T17:59:06.987Z,100207.31
2023-02-16T18:01:35.826Z,100215.75
2023-02-16T18:04:04.590Z,100222.59
2023-02-16T18:06:33.334Z,100219.16
2023-02-16T18:09:01.974Z,100224.25
2023-02-16T18:11:31.244Z,100229.34
2023-02-16T18:14:00.106Z,100230.25
2023-02-16T18:16:30.344Z,100233.59
2023-02-16T18:18:58.999Z,100228.50
2023-02-16T18:21:27.673Z,100233.59
2023-02-16T18:23:56.274Z,100230.25
2023-02-16T18:26:25.242Z,100228.50
2023-02-16T18:28:53.907Z,100237.88
2023-02-16T18:31:22.704Z,100233.59
2023-02-16T18:33:52.975Z,100226.88
2023-02-16T18:36:21.585Z,100229.44
2023-02-16T18:38:51.518Z,100226.03
2023-02-16T18:41:20.418Z,100223.47
2023-02-16T18:43:49.088Z,100221.78
2023-02-16T18:46:18.690Z,100223.47
2023-02-16T18:48:47.414Z,100220.94
2023-02-16T18:51:23.605Z,100216.69
2023-02-16T18:53:52.228Z,100213.34
2023-02-16T18:56:20.860Z,100207.38
2023-02-16T18:58:49.505Z,100202.28
2023-02-16T19:01:29.078Z,100203.09
2023-02-16T19:03:58.845Z,100197.25
2023-02-16T19:06:29.140Z,100204.81
2023-02-16T19:08:59.034Z,100203.94
2023-02-16T19:11:30.772Z,100214.13
2023-02-16T19:13:59.436Z,100209.03
2023-02-16T19:16:28.114Z,100210.75
2023-02-16T19:18:56.818Z,100214.94
2023-02-16T19:21:25.526Z,100211.59
2023-02-16T19:23:55.614Z,100211.59
2023-02-16T19:26:24.582Z,100214.88
2023-02-16T19:28:54.402Z,100208.97
2023-02-16T19:31:27.239Z,100217.44
2023-02-16T19:33:57.773Z,100217.44
2023-02-16T19:36:27.850Z,100211.44
2023-02-16T19:38:58.596Z,100225.00
2023-02-16T19:41:30.160Z,100208.81
2023-02-16T19:43:59.292Z,100211.38
2023-02-16T19:46:28.954Z,100218.94
2023-02-16T19:48:59.056Z,100213.84
2023-02-16T19:51:28.627Z,100217.22
2023-02-16T19:53:59.589Z,100227.44
2023-02-16T19:56:28.647Z,100229.06
2023-02-16T19:58:59.902Z,100233.19
2023-02-16T20:01:29.725Z,100241.72
2023-02-16T20:04:00.175Z,100235.75
2023-02-16T20:06:32.164Z,100234.03
2023-02-16T20:09:03.357Z,100229.75
2023-02-16T20:11:32.816Z,100236.50
2023-02-16T20:14:02.133Z,100239.88
2023-02-16T20:16:31.309Z,100227.94
2023-02-16T20:19:00.513Z,100232.16
2023-02-16T20:21:30.808Z,100223.63
2023-02-16T20:24:03.090Z,100216.78
2023-02-16T20:26:34.744Z,100217.63
2023-02-16T20:29:04.801Z,100208.25
2023-02-16T20:31:37.559Z,100193.81
2023-02-16T20:34:07.817Z,100200.53
2023-02-16T20:36:36.597Z,100200.44
2023-02-16T20:39:09.185Z,100195.34
2023-02-16T20:41:37.991Z,100193.66
2023-02-16T20:44:07.093Z,100190.22
2023-02-16T20:46:35.937Z,100188.47
2023-02-16T20:49:05.572Z,100194.31
2023-02-16T20:51:35.134Z,100195.16
2023-02-16T20:54:06.875Z,100194.28
2023-02-16T20:56:35.624Z,100197.63
2023-02-16T20:59:05.423Z,100194.28
2023-02-16T21:01:38.188Z,100199.28
2023-02-16T21:04:08.909Z,100195.81
2023-02-16T21:06:38.294Z,100189.00
2023-02-16T21:09:10.292Z,100193.22
2023-02-16T21:11:39.855Z,100187.28
2023-02-16T21:14:10.683Z,100191.41
2023-02-16T21:16:41.092Z,100186.31
2023-02-16T21:19:22.189Z,100187.97
2023-02-16T21:21:52.302Z,100181.22
2023-02-16T21:24:22.536Z,100177.78
2023-02-16T21:26:51.196Z,100177.78
2023-02-16T21:29:19.874Z,100176.00
2023-02-16T21:31:48.575Z,100179.38
2023-02-16T21:34:17.368Z,100172.56
2023-02-16T21:36:47.457Z,100167.44
2023-02-16T21:39:16.169Z,100169.09
2023-02-16T21:41:45.343Z,100166.56
2023-02-16T21:44:16.789Z,100160.56
2023-02-16T21:46:47.699Z,100157.09
2023-02-16T21:49:18.786Z,100163.03
2023-02-16T21:51:49.077Z,100162.19
2023-02-16T21:54:40.074Z,100157.09
2023-02-16T21:57:09.064Z,100157.09
2023-02-16T21:59:38.099Z,100142.63
2023-02-16T22:02:06.742Z,100138.34
2023-02-16T22:04:35.363Z,100137.47
2023-02-16T22:07:03.952Z,100138.28
2023-02-16T22:09:32.619Z,100141.66
2023-02-16T22:12:01.278Z,100142.47
2023-02-16T22:14:33.218Z,100141.59
2023-02-16T22:17:03.138Z,100139.84
2023-02-16T22:19:31.772Z,100134.75
2023-02-16T22:22:00.482Z,100138.16
2023-02-16T22:24:29.100Z,100131.31
2023-02-16T22:26:57.811Z,100129.56
2023-02-16T22:29:26.435Z,100138.06
2023-02-16T22:31:56.448Z,100132.97
2023-02-16T22:34:25.099Z,100129.50
2023-02-16T22:36:53.740Z,100134.59
2023-02-16T22:39:22.606Z,100132.00
2023-02-16T22:41:52.016Z,100137.91
2023-02-16T22:44:20.795Z,100127.72
2023-02-16T22:46:49.540Z,100140.47
2023-02-16T22:49:19.684Z,100137.91
2023-02-16T22:51:48.646Z,100143.81
2023-02-16T22:54:17.311Z,100138.72
2023-02-16T22:56:46.019Z,100141.22
2023-02-16T22:59:14.877Z,100136.94
2023-02-16T23:01:43.606Z,100148.88
2023-02-16T23:04:16.392Z,100144.59
2023-02-16T23:06:46.926Z,100148.88
2023-02-16T23:09:18.668Z,100157.34
2023-02-16T23:11:47.959Z,100148.88
2023-02-16T23:14:20.793Z,100153.06
2023-02-16T23:16:51.861Z,100143.69
2023-02-16T23:19:24.999Z,100142.84
2023-02-16T23:21:55.918Z,100145.41
2023-02-16T23:24:25.271Z,100139.41
2023-02-16T23:26:54.859Z,100128.41
2023-02-16T23:29:23.680Z,100141.97
2023-02-16T23:31:53.124Z,100139.41
2023-02-16T23:34:22.607Z,100143.63
2023-02-16T23:36:51.338Z,100130.88
2023-02-16T23:39:21.323Z,100144.53
2023-02-16T23:41:50.010Z,100135.13
2023-02-16T23:44:18.628Z,100134.22
2023-02-16T23:46:47.414Z,100130.88
2023-02-16T23:49:16.044Z,100131.69
2023-02-16T23:51:44.616Z,100132.53
2023-02-16T23:54:13.257Z,100134.16
2023-02-16T23:56:43.224Z,100125.69
2023-02-16T23:59:11.888Z,100123.94
